Observation data for Jayton on 12/10/2018      Previous  Date       Current Mesonet Observations  Soil Data  Daily Summary Page  Observations in Plain Language
KJTS 100600Z 27006KT M03/M04 A3038 RMK A01 T10301040  RH  093%=      5-min Rain = 0
KJTS 100605Z 28007KT M03/M04 A3038 RMK A01 T10301040  RH  093%=      5-min Rain = 0
KJTS 100610Z 27008KT M03/M04 A3037 RMK A01 T10301040  RH  093%=      5-min Rain = 0
KJTS 100615Z 27007KT M03/M04 A3037 RMK A01 T10291040  RH  093%=      5-min Rain = 0
KJTS 100620Z 27008KT M03/M04 A3037 RMK A01 T10301041  RH  093%=      5-min Rain = 0
KJTS 100625Z 27007KT M03/M04 A3037 RMK A01 T10301041  RH  093%=      5-min Rain = 0
KJTS 100630Z 27008KT M03/M04 A3037 RMK A01 T10291040  RH  093%=      5-min Rain = 0
KJTS 100635Z 26008KT M03/M04 A3037 RMK A01 T10291040  RH  093%=      5-min Rain = 0
KJTS 100640Z 26007KT M03/M04 A3037 RMK A01 T10291040  RH  092%=      5-min Rain = 0
KJTS 100645Z 26007KT M03/M04 A3037 RMK A01 T10291040  RH  093%=      5-min Rain = 0
KJTS 100650Z 27008KT M03/M04 A3037 RMK A01 T10301040  RH  093%=      5-min Rain = 0
KJTS 100655Z 27008KT M03/M04 A3036 RMK A01 T10291040  RH  093%=      5-min Rain = 0
KJTS 100700Z 27008KT M03/M04 A3036 RMK A01 T10291040  RH  093%=      5-min Rain = 0
KJTS 100705Z 27008KT M03/M04 A3036 RMK A01 T10291040  RH  093%=      5-min Rain = 0
KJTS 100710Z 27009KT M03/M04 A3036 RMK A01 T10291040  RH  093%=      5-min Rain = 0
KJTS 100715Z 27008KT M03/M04 A3036 RMK A01 T10291040  RH  093%=      5-min Rain = 0
KJTS 100720Z 27009KT M03/M04 A3036 RMK A01 T10281039  RH  093%=      5-min Rain = 0
KJTS 100725Z 27009KT M03/M04 A3036 RMK A01 T10271039  RH  092%=      5-min Rain = 0
KJTS 100730Z 28008KT M03/M04 A3036 RMK A01 T10261038  RH  091%=      5-min Rain = 0
KJTS 100735Z 28008KT M03/M04 A3035 RMK A01 T10251039  RH  091%=      5-min Rain = 0
KJTS 100740Z 28008KT M03/M04 A3036 RMK A01 T10251039  RH  091%=      5-min Rain = 0
KJTS 100745Z 28008KT M03/M04 A3035 RMK A01 T10251039  RH  090%=      5-min Rain = 0
KJTS 100750Z 28008KT M03/M04 A3035 RMK A01 T10251040  RH  090%=      5-min Rain = 0
KJTS 100755Z 28008KT M03/M04 A3035 RMK A01 T10261041  RH  090%=      5-min Rain = 0
KJTS 100800Z 28008KT M03/M04 A3035 RMK A01 T10271042  RH  090%=      5-min Rain = 0
KJTS 100805Z 27008KT M03/M04 A3035 RMK A01 T10281042  RH  090%=      5-min Rain = 0
KJTS 100810Z 27008KT M03/M04 A3035 RMK A01 T10281042  RH  091%=      5-min Rain = 0
KJTS 100815Z 27008KT M03/M04 A3035 RMK A01 T10291042  RH  091%=      5-min Rain = 0
KJTS 100820Z 27008KT M03/M04 A3035 RMK A01 T10281042  RH  091%=      5-min Rain = 0
KJTS 100825Z 27008KT M03/M04 A3035 RMK A01 T10281042  RH  091%=      5-min Rain = 0
KJTS 100830Z 28008KT M03/M04 A3035 RMK A01 T10281042  RH  091%=      5-min Rain = 0
KJTS 100835Z 28008KT M03/M04 A3035 RMK A01 T10291042  RH  091%=      5-min Rain = 0
KJTS 100840Z 27008KT M03/M04 A3035 RMK A01 T10291042  RH  091%=      5-min Rain = 0
KJTS 100845Z 27008KT M03/M04 A3035 RMK A01 T10291042  RH  091%=      5-min Rain = 0
KJTS 100850Z 27008KT M03/M04 A3035 RMK A01 T10291042  RH  091%=      5-min Rain = 0
KJTS 100855Z 27008KT M03/M04 A3035 RMK A01 T10291042  RH  091%=      5-min Rain = 0
KJTS 100900Z 27008KT M03/M04 A3035 RMK A01 T10281041  RH  091%=      5-min Rain = 0
KJTS 100905Z 27008KT M03/M04 A3034 RMK A01 T10281041  RH  091%=      5-min Rain = 0
KJTS 100910Z 27008KT M03/M04 A3034 RMK A01 T10271041  RH  091%=      5-min Rain = 0
KJTS 100915Z 27007KT M03/M04 A3034 RMK A01 T10271041  RH  091%=      5-min Rain = 0
KJTS 100920Z 27007KT M03/M04 A3034 RMK A01 T10271041  RH  090%=      5-min Rain = 0
KJTS 100925Z 27008KT M03/M04 A3034 RMK A01 T10271042  RH  090%=      5-min Rain = 0
KJTS 100930Z 27007KT M03/M04 A3034 RMK A01 T10281042  RH  090%=      5-min Rain = 0
KJTS 100935Z 28007KT M03/M04 A3034 RMK A01 T10281042  RH  091%=      5-min Rain = 0
KJTS 100940Z 28008KT M03/M04 A3034 RMK A01 T10291043  RH  091%=      5-min Rain = 0
KJTS 100945Z 28008KT M03/M04 A3034 RMK A01 T10291043  RH  091%=      5-min Rain = 0
KJTS 100950Z 27008KT M03/M04 A3034 RMK A01 T10301043  RH  091%=      5-min Rain = 0
KJTS 100955Z 27008KT M03/M04 A3034 RMK A01 T10301043  RH  091%=      5-min Rain = 0
KJTS 101000Z 27008KT M03/M04 A3034 RMK A01 T10301043  RH  091%=      5-min Rain = 0
KJTS 101005Z 27008KT M03/M04 A3034 RMK A01 T10291043  RH  091%=      5-min Rain = 0
KJTS 101010Z 27008KT M03/M04 A3034 RMK A01 T10291043  RH  091%=      5-min Rain = 0
KJTS 101015Z 27008KT M03/M04 A3034 RMK A01 T10301043  RH  091%=      5-min Rain = 0
KJTS 101020Z 27007KT M03/M04 A3034 RMK A01 T10301043  RH  091%=      5-min Rain = 0
KJTS 101025Z 27008KT M03/M04 A3034 RMK A01 T10291043  RH  091%=      5-min Rain = 0
KJTS 101030Z 26008KT M03/M04 A3033 RMK A01 T10281042  RH  091%=      5-min Rain = 0
KJTS 101035Z 27008KT M03/M04 A3033 RMK A01 T10271041  RH  090%=      5-min Rain = 0
KJTS 101040Z 27007KT M03/M04 A3033 RMK A01 T10261041  RH  089%=      5-min Rain = 0
KJTS 101045Z 27007KT M03/M04 A3033 RMK A01 T10261041  RH  089%=      5-min Rain = 0
KJTS 101050Z 28007KT M03/M04 A3033 RMK A01 T10261041  RH  089%=      5-min Rain = 0
KJTS 101055Z 28007KT M03/M04 A3033 RMK A01 T10261041  RH  090%=      5-min Rain = 0
KJTS 101100Z 27007KT M03/M04 A3033 RMK A01 T10271041  RH  090%=      5-min Rain = 0
KJTS 101105Z 28007KT M03/M04 A3033 RMK A01 T10281041  RH  091%=      5-min Rain = 0
KJTS 101110Z 27007KT M03/M04 A3033 RMK A01 T10291042  RH  091%=      5-min Rain = 0
KJTS 101115Z 27007KT M03/M04 A3033 RMK A01 T10291042  RH  092%=      5-min Rain = 0
KJTS 101120Z 28006KT M03/M04 A3033 RMK A01 T10301042  RH  092%=      5-min Rain = 0
KJTS 101125Z 27007KT M03/M04 A3033 RMK A01 T10301042  RH  092%=      5-min Rain = 0
KJTS 101130Z 28007KT M03/M04 A3033 RMK A01 T10301042  RH  092%=      5-min Rain = 0
KJTS 101135Z 29006KT M03/M04 A3033 RMK A01 T10311043  RH  092%=      5-min Rain = 0
KJTS 101140Z 28006KT M03/M04 A3033 RMK A01 T10321043  RH  092%=      5-min Rain = 0
KJTS 101145Z 28007KT M03/M04 A3034 RMK A01 T10321044  RH  092%=      5-min Rain = 0
KJTS 101150Z 28006KT M03/M05 A3034 RMK A01 T10331045  RH  092%=      5-min Rain = 0
KJTS 101155Z 28007KT M03/M04 A3034 RMK A01 T10341044  RH  093%=      5-min Rain = 0
KJTS 101200Z 28007KT M03/M04 A3034 RMK A01 T10341044  RH  093%=      5-min Rain = 0
KJTS 101205Z 27007KT M03/M04 A3034 RMK A01 T10341044  RH  093%=      5-min Rain = 0
KJTS 101210Z 27007KT M03/M04 A3034 RMK A01 T10341044  RH  093%=      5-min Rain = 0
KJTS 101215Z 27007KT M03/M04 A3034 RMK A01 T10341044  RH  093%=      5-min Rain = 0
KJTS 101220Z 26007KT M03/M04 A3034 RMK A01 T10331043  RH  094%=      5-min Rain = 0
KJTS 101225Z 27007KT M03/M04 A3034 RMK A01 T10331042  RH  094%=      5-min Rain = 0
KJTS 101230Z 27007KT M03/M04 A3034 RMK A01 T10331042  RH  094%=      5-min Rain = 0
KJTS 101235Z 29006KT M03/M04 A3035 RMK A01 T10331042  RH  094%=      5-min Rain = 0
KJTS 101240Z 28006KT M03/M04 A3034 RMK A01 T10331043  RH  094%=      5-min Rain = 0
KJTS 101245Z 27007KT M03/M04 A3034 RMK A01 T10341044  RH  093%=      5-min Rain = 0
KJTS 101250Z 27007KT M03/M04 A3035 RMK A01 T10341044  RH  094%=      5-min Rain = 0
KJTS 101255Z 26007KT M04/M04 A3035 RMK A01 T10351044  RH  094%=      5-min Rain = 0
KJTS 101300Z 26007KT M04/M04 A3035 RMK A01 T10351044  RH  094%=      5-min Rain = 0
KJTS 101305Z 26007KT M04/M04 A3035 RMK A01 T10351044  RH  093%=      5-min Rain = 0
KJTS 101310Z 27007KT M03/M04 A3035 RMK A01 T10341043  RH  094%=      5-min Rain = 0
KJTS 101315Z 27007KT M03/M04 A3035 RMK A01 T10331042  RH  094%=      5-min Rain = 0
KJTS 101320Z 26008KT M03/M04 A3035 RMK A01 T10321042  RH  093%=      5-min Rain = 0
KJTS 101325Z 26008KT M03/M04 A3035 RMK A01 T10311041  RH  093%=      5-min Rain = 0
KJTS 101330Z 26008KT M03/M04 A3036 RMK A01 T10301041  RH  093%=      5-min Rain = 0
KJTS 101335Z 26007KT M03/M04 A3036 RMK A01 T10291040  RH  092%=      5-min Rain = 0
KJTS 101340Z 26008KT M03/M04 A3035 RMK A01 T10291040  RH  092%=      5-min Rain = 0
KJTS 101345Z 25008KT M03/M04 A3035 RMK A01 T10281040  RH  092%=      5-min Rain = 0
KJTS 101350Z 25007KT M03/M04 A3036 RMK A01 T10271040  RH  092%=      5-min Rain = 0
KJTS 101355Z 26006KT M03/M04 A3036 RMK A01 T10261039  RH  091%=      5-min Rain = 0
KJTS 101400Z 26006KT M03/M04 A3036 RMK A01 T10251038  RH  091%=      5-min Rain = 0
KJTS 101405Z 26006KT M02/M04 A3036 RMK A01 T10231038  RH  090%=      5-min Rain = 0
KJTS 101410Z 26006KT M02/M04 A3036 RMK A01 T10221037  RH  090%=      5-min Rain = 0
KJTS 101415Z 28007KT M02/M04 A3036 RMK A01 T10211036  RH  090%=      5-min Rain = 0
KJTS 101420Z 28006KT M02/M03 A3036 RMK A01 T10201034  RH  090%=      5-min Rain = 0
KJTS 101425Z 28006KT M02/M03 A3037 RMK A01 T10171032  RH  090%=      5-min Rain = 0
KJTS 101430Z 29007KT M01/M03 A3037 RMK A01 T10131029  RH  090%=      5-min Rain = 0
KJTS 101435Z 28007KT M01/M03 A3037 RMK A01 T10101027  RH  089%=      5-min Rain = 0
KJTS 101440Z 28007KT M01/M03 A3037 RMK A01 T10081026  RH  088%=      5-min Rain = 0
KJTS 101445Z 28008KT M01/M03 A3038 RMK A01 T10061026  RH  087%=      5-min Rain = 0
KJTS 101450Z 28006KT M01/M03 A3038 RMK A01 T10051026  RH  087%=      5-min Rain = 0
KJTS 101455Z 28006KT M00/M03 A3038 RMK A01 T10041025  RH  086%=      5-min Rain = 0
KJTS 101500Z 27006KT M00/M02 A3038 RMK A01 T10021024  RH  086%=      5-min Rain = 0
KJTS 101505Z 26006KT M00/M02 A3038 RMK A01 T10011024  RH  085%=      5-min Rain = 0
KJTS 101510Z 27007KT 00/M02 A3038 RMK A01 T00011023  RH  085%=      5-min Rain = 0
KJTS 101515Z 26007KT 00/M02 A3038 RMK A01 T00021022  RH  084%=      5-min Rain = 0
KJTS 101520Z 26006KT 00/M02 A3038 RMK A01 T00041020  RH  085%=      5-min Rain = 0
KJTS 101525Z 26007KT 01/M02 A3039 RMK A01 T00051020  RH  084%=      5-min Rain = 0
KJTS 101530Z 26007KT 01/M02 A3039 RMK A01 T00061020  RH  084%=      5-min Rain = 0
KJTS 101535Z 26007KT 01/M02 A3039 RMK A01 T00071019  RH  083%=      5-min Rain = 0
KJTS 101540Z 26006KT 01/M02 A3039 RMK A01 T00091017  RH  083%=      5-min Rain = 0
KJTS 101545Z 27006KT 01/M02 A3039 RMK A01 T00121015  RH  083%=      5-min Rain = 0
KJTS 101550Z 27006KT 02/M01 A3039 RMK A01 T00151014  RH  082%=      5-min Rain = 0
KJTS 101555Z 27006KT 02/M01 A3039 RMK A01 T00181011  RH  082%=      5-min Rain = 0
KJTS 101600Z 26007KT 02/M01 A3039 RMK A01 T00211010  RH  080%=      5-min Rain = 0
KJTS 101605Z 26007KT 02/M01 A3039 RMK A01 T00231009  RH  080%=      5-min Rain = 0
KJTS 101610Z 26007KT 03/M01 A3039 RMK A01 T00261008  RH  079%=      5-min Rain = 0
KJTS 101615Z 26007KT 03/M01 A3039 RMK A01 T00281008  RH  078%=      5-min Rain = 0
KJTS 101620Z 26005KT 03/M00 A3039 RMK A01 T00321004  RH  078%=      5-min Rain = 0
KJTS 101625Z 27005KT 04/M00 A3039 RMK A01 T00351003  RH  077%=      5-min Rain = 0
KJTS 101630Z 26005KT 04/M00 A3039 RMK A01 T00401002  RH  075%=      5-min Rain = 0
KJTS 101635Z 28005KT 04/M00 A3038 RMK A01 T00421001  RH  074%=      5-min Rain = 0
KJTS 101640Z 28005KT 05/00 A3038 RMK A01 T004500-0  RH  073%=      5-min Rain = 0
KJTS 101645Z 28005KT 05/00 A3038 RMK A01 T00480000  RH  072%=      5-min Rain = 0
KJTS 101650Z 28006KT 05/00 A3038 RMK A01 T00530002  RH  071%=      5-min Rain = 0
KJTS 101655Z 26006KT 06/00 A3038 RMK A01 T00550001  RH  069%=      5-min Rain = 0
KJTS 101700Z 27006KT 06/00 A3038 RMK A01 T00560003  RH  069%=      5-min Rain = 0
KJTS 101705Z 28005KT 06/00 A3038 RMK A01 T00590003  RH  068%=      5-min Rain = 0
KJTS 101710Z 30006KT 06/00 A3038 RMK A01 T00630003  RH  066%=      5-min Rain = 0
KJTS 101715Z 25005KT 07/01 A3037 RMK A01 T00670006  RH  066%=      5-min Rain = 0
KJTS 101720Z 25004KT 07/01 A3037 RMK A01 T00690009  RH  066%=      5-min Rain = 0
KJTS 101725Z 27005KT 07/01 A3037 RMK A01 T00720007  RH  065%=      5-min Rain = 0
KJTS 101730Z 30005KT 08/01 A3037 RMK A01 T00750007  RH  063%=      5-min Rain = 0
KJTS 101735Z 30004KT 08/01 A3037 RMK A01 T00770007  RH  062%=      5-min Rain = 0
KJTS 101740Z 31005KT 08/01 A3036 RMK A01 T00790009  RH  062%=      5-min Rain = 0
KJTS 101745Z 29004KT 08/01 A3036 RMK A01 T00830011  RH  061%=      5-min Rain = 0
KJTS 101750Z 27004KT 09/01 A3036 RMK A01 T00860011  RH  060%=      5-min Rain = 0
KJTS 101755Z 28004KT 09/01 A3035 RMK A01 T00900014  RH  060%=      5-min Rain = 0
KJTS 101800Z 29004KT 09/01 A3035 RMK A01 T00940014  RH  058%=      5-min Rain = 0
KJTS 101805Z 31003KT 10/02 A3035 RMK A01 T00970017  RH  058%=      5-min Rain = 0
KJTS 101810Z 31004KT 10/02 A3034 RMK A01 T01010016  RH  056%=      5-min Rain = 0
KJTS 101815Z 31004KT 10/02 A3034 RMK A01 T01040017  RH  056%=      5-min Rain = 0
KJTS 101820Z 30004KT 11/02 A3034 RMK A01 T01060015  RH  054%=      5-min Rain = 0
KJTS 101825Z 30004KT 11/02 A3034 RMK A01 T01100017  RH  054%=      5-min Rain = 0
KJTS 101830Z 31004KT 11/02 A3033 RMK A01 T01120016  RH  052%=      5-min Rain = 0
KJTS 101835Z 35004KT 12/01 A3033 RMK A01 T01160014  RH  050%=      5-min Rain = 0
KJTS 101840Z 34006KT 12/01 A3033 RMK A01 T01160011  RH  049%=      5-min Rain = 0
KJTS 101845Z 36006KT 12/01 A3033 RMK A01 T01160013  RH  050%=      5-min Rain = 0
KJTS 101850Z 35007KT 12/01 A3033 RMK A01 T01170014  RH  050%=      5-min Rain = 0
KJTS 101855Z 36007KT 12/01 A3033 RMK A01 T01170014  RH  050%=      5-min Rain = 0
KJTS 101900Z 35006KT 12/01 A3032 RMK A01 T01170011  RH  049%=      5-min Rain = 0
KJTS 101905Z 36007KT 12/01 A3032 RMK A01 T01190011  RH  048%=      5-min Rain = 0
KJTS 101910Z 35005KT 12/00 A3032 RMK A01 T01200003  RH  045%=      5-min Rain = 0
KJTS 101915Z 36006KT 12/01 A3032 RMK A01 T01210010  RH  047%=      5-min Rain = 0
KJTS 101920Z 07006KT 12/01 A3032 RMK A01 T01200014  RH  049%=      5-min Rain = 0
KJTS 101925Z 05004KT 12/01 A3032 RMK A01 T01180008  RH  047%=      5-min Rain = 0
KJTS 101930Z 05006KT 12/02 A3031 RMK A01 T01180018  RH  051%=      5-min Rain = 0
KJTS 101935Z 06006KT 12/02 A3031 RMK A01 T01150020  RH  053%=      5-min Rain = 0
KJTS 101940Z 05005KT 12/02 A3031 RMK A01 T01180019  RH  052%=      5-min Rain = 0
KJTS 101945Z 04004KT 12/02 A3031 RMK A01 T01190019  RH  051%=      5-min Rain = 0
KJTS 101950Z 04004KT 12/02 A3031 RMK A01 T01190016  RH  050%=      5-min Rain = 0
KJTS 101955Z 04005KT 12/02 A3031 RMK A01 T01180016  RH  050%=      5-min Rain = 0
KJTS 102000Z 04006KT 11/02 A3031 RMK A01 T01140015  RH  052%=      5-min Rain = 0
KJTS 102005Z 05005KT 11/02 A3031 RMK A01 T01130016  RH  052%=      5-min Rain = 0
KJTS 102010Z 07004KT 12/01 A3031 RMK A01 T01150014  RH  051%=      5-min Rain = 0
KJTS 102015Z 06005KT 12/01 A303 RMK A01 T01150014  RH  050%=      5-min Rain = 0
KJTS 102020Z 05004KT 11/01 A303 RMK A01 T01140014  RH  051%=      5-min Rain = 0
KJTS 102025Z 05004KT 12/01 A303 RMK A01 T01150013  RH  050%=      5-min Rain = 0
KJTS 102030Z 03003KT 12/01 A303 RMK A01 T01160012  RH  049%=      5-min Rain = 0
KJTS 102035Z 05005KT 12/02 A303 RMK A01 T01180016  RH  050%=      5-min Rain = 0
KJTS 102040Z 07005KT 12/02 A303 RMK A01 T01160015  RH  051%=      5-min Rain = 0
KJTS 102045Z 06005KT 12/02 A303 RMK A01 T01160015  RH  051%=      5-min Rain = 0
KJTS 102050Z 07007KT 12/02 A303 RMK A01 T01150015  RH  051%=      5-min Rain = 0
KJTS 102055Z 05006KT 11/02 A303 RMK A01 T01140015  RH  051%=      5-min Rain = 0
KJTS 102100Z 05005KT 12/01 A303 RMK A01 T01150013  RH  050%=      5-min Rain = 0
KJTS 102105Z 07005KT 11/01 A303 RMK A01 T01140012  RH  050%=      5-min Rain = 0
KJTS 102110Z 07005KT 11/01 A303 RMK A01 T01140010  RH  049%=      5-min Rain = 0
KJTS 102115Z 05004KT 12/01 A303 RMK A01 T01160011  RH  049%=      5-min Rain = 0
KJTS 102120Z 05003KT 12/01 A303 RMK A01 T01160006  RH  047%=      5-min Rain = 0
KJTS 102125Z 05002KT 12/01 A303 RMK A01 T01190009  RH  047%=      5-min Rain = 0
KJTS 102130Z 06004KT 12/01 A3029 RMK A01 T01210008  RH  046%=      5-min Rain = 0
KJTS 102135Z 06003KT 12/01 A3029 RMK A01 T01200006  RH  046%=      5-min Rain = 0
KJTS 102140Z 08003KT 12/01 A3029 RMK A01 T01210006  RH  046%=      5-min Rain = 0
KJTS 102145Z 07004KT 12/01 A3029 RMK A01 T01220009  RH  047%=      5-min Rain = 0
KJTS 102150Z 07005KT 12/01 A3029 RMK A01 T01200011  RH  048%=      5-min Rain = 0
KJTS 102155Z 07006KT 12/01 A3029 RMK A01 T01190010  RH  048%=      5-min Rain = 0
KJTS 102200Z 08005KT 12/01 A3029 RMK A01 T01180009  RH  048%=      5-min Rain = 0
KJTS 102205Z 07004KT 12/01 A3029 RMK A01 T01180006  RH  047%=      5-min Rain = 0
KJTS 102210Z 07004KT 12/01 A3029 RMK A01 T01180005  RH  046%=      5-min Rain = 0
KJTS 102215Z 07004KT 12/01 A3029 RMK A01 T01190007  RH  047%=      5-min Rain = 0
KJTS 102220Z 08004KT 12/01 A3029 RMK A01 T01190006  RH  047%=      5-min Rain = 0
KJTS 102225Z 08004KT 12/01 A3029 RMK A01 T01200007  RH  047%=      5-min Rain = 0
KJTS 102230Z 07005KT 12/01 A3029 RMK A01 T01200007  RH  047%=      5-min Rain = 0
KJTS 102235Z 08005KT 12/01 A3029 RMK A01 T01180008  RH  047%=      5-min Rain = 0
KJTS 102240Z 07005KT 12/01 A3029 RMK A01 T01170008  RH  047%=      5-min Rain = 0
KJTS 102245Z 07005KT 11/01 A3029 RMK A01 T01140009  RH  049%=      5-min Rain = 0
KJTS 102250Z 08004KT 11/01 A3029 RMK A01 T01130011  RH  050%=      5-min Rain = 0
KJTS 102255Z 07004KT 11/01 A3029 RMK A01 T01110012  RH  051%=      5-min Rain = 0
KJTS 102300Z 07004KT 11/01 A3029 RMK A01 T01090011  RH  051%=      5-min Rain = 0
KJTS 102305Z 07004KT 11/01 A3029 RMK A01 T01060011  RH  052%=      5-min Rain = 0
KJTS 102310Z 08004KT 10/01 A303 RMK A01 T01010011  RH  055%=      5-min Rain = 0
KJTS 102315Z 08004KT 10/01 A303 RMK A01 T00960011  RH  056%=      5-min Rain = 0
KJTS 102320Z 08003KT 09/01 A303 RMK A01 T00930010  RH  057%=      5-min Rain = 0
KJTS 102325Z 09004KT 09/01 A303 RMK A01 T00880011  RH  059%=      5-min Rain = 0
KJTS 102330Z 09004KT 08/01 A303 RMK A01 T00830011  RH  062%=      5-min Rain = 0
KJTS 102335Z 09004KT 08/01 A303 RMK A01 T00790010  RH  063%=      5-min Rain = 0
KJTS 102340Z 09005KT 08/01 A303 RMK A01 T00770007  RH  062%=      5-min Rain = 0
KJTS 102345Z 09005KT 07/01 A303 RMK A01 T00740007  RH  063%=      5-min Rain = 0
KJTS 102350Z 09004KT 07/01 A303 RMK A01 T00680007  RH  066%=      5-min Rain = 0
KJTS 102355Z 09005KT 07/01 A303 RMK A01 T00660006  RH  066%=      5-min Rain = 0
KJTS 110000Z 10005KT 06/01 A303 RMK A01 T00640006  RH  067%=      5-min Rain = 0
KJTS 110005Z 10005KT 06/01 A3031 RMK A01 T00620005  RH  068%=      5-min Rain = 0
KJTS 110010Z 10006KT 06/00 A3031 RMK A01 T00630003  RH  067%=      5-min Rain = 0
KJTS 110015Z 11007KT 06/00 A3031 RMK A01 T00580003  RH  069%=      5-min Rain = 0
KJTS 110020Z 10006KT 06/00 A3031 RMK A01 T00580001  RH  068%=      5-min Rain = 0
KJTS 110025Z 10006KT 06/00 A303 RMK A01 T00610001  RH  066%=      5-min Rain = 0
KJTS 110030Z 10007KT 06/00 A303 RMK A01 T00590001  RH  067%=      5-min Rain = 0
KJTS 110035Z 10007KT 06/00 A303 RMK A01 T00570001  RH  068%=      5-min Rain = 0
KJTS 110040Z 11007KT 06/M00 A303 RMK A01 T00561001  RH  068%=      5-min Rain = 0
KJTS 110045Z 11006KT 06/M00 A303 RMK A01 T00551001  RH  068%=      5-min Rain = 0
KJTS 110050Z 11006KT 05/M00 A303 RMK A01 T00531003  RH  068%=      5-min Rain = 0
KJTS 110055Z 12007KT 05/M00 A303 RMK A01 T00511003  RH  069%=      5-min Rain = 0
KJTS 110100Z 12008KT 05/M00 A303 RMK A01 T00511003  RH  069%=      5-min Rain = 0
KJTS 110105Z 12008KT 06/M00 A303 RMK A01 T00561004  RH  066%=      5-min Rain = 0
KJTS 110110Z 12007KT 06/M00 A303 RMK A01 T00591004  RH  065%=      5-min Rain = 0
KJTS 110115Z 12007KT 06/M00 A303 RMK A01 T00601004  RH  064%=      5-min Rain = 0
KJTS 110120Z 12007KT 06/M00 A303 RMK A01 T00571003  RH  066%=      5-min Rain = 0
KJTS 110125Z 12008KT 06/M00 A303 RMK A01 T00551003  RH  067%=      5-min Rain = 0
KJTS 110130Z 12007KT 06/M00 A303 RMK A01 T00551003  RH  067%=      5-min Rain = 0
KJTS 110135Z 12007KT 06/M00 A303 RMK A01 T00551003  RH  067%=      5-min Rain = 0
KJTS 110140Z 13007KT 06/M00 A303 RMK A01 T00561003  RH  066%=      5-min Rain = 0
KJTS 110145Z 13006KT 06/M00 A303 RMK A01 T00561003  RH  066%=      5-min Rain = 0
KJTS 110150Z 13007KT 06/M00 A303 RMK A01 T00551003  RH  067%=      5-min Rain = 0
KJTS 110155Z 14007KT 05/M00 A303 RMK A01 T00541004  RH  067%=      5-min Rain = 0
KJTS 110200Z 14006KT 05/M00 A303 RMK A01 T00541003  RH  068%=      5-min Rain = 0
KJTS 110205Z 15006KT 05/M00 A303 RMK A01 T00531002  RH  068%=      5-min Rain = 0
KJTS 110210Z 15006KT 05/M00 A303 RMK A01 T00511002  RH  069%=      5-min Rain = 0
KJTS 110215Z 14006KT 05/M00 A303 RMK A01 T00481002  RH  071%=      5-min Rain = 0
KJTS 110220Z 15006KT 05/M00 A303 RMK A01 T00471001  RH  072%=      5-min Rain = 0
KJTS 110225Z 15006KT 05/00 A303 RMK A01 T004600-0  RH  072%=      5-min Rain = 0
KJTS 110230Z 15006KT 05/00 A303 RMK A01 T00470000  RH  073%=      5-min Rain = 0
KJTS 110235Z 16006KT 05/00 A303 RMK A01 T00460001  RH  073%=      5-min Rain = 0
KJTS 110240Z 16005KT 05/00 A3031 RMK A01 T00450001  RH  074%=      5-min Rain = 0
KJTS 110245Z 16005KT 04/00 A3031 RMK A01 T004300-0  RH  074%=      5-min Rain = 0
KJTS 110250Z 17006KT 04/M00 A3031 RMK A01 T00411001  RH  075%=      5-min Rain = 0
KJTS 110255Z 17006KT 04/M00 A3031 RMK A01 T00391001  RH  076%=      5-min Rain = 0
KJTS 110300Z 16006KT 04/M00 A3031 RMK A01 T00361002  RH  077%=      5-min Rain = 0
KJTS 110305Z 16006KT 04/00 A3031 RMK A01 T003500-0  RH  079%=      5-min Rain = 0
KJTS 110310Z 16006KT 04/00 A303 RMK A01 T00350001  RH  079%=      5-min Rain = 0
KJTS 110315Z 16006KT 04/00 A303 RMK A01 T00380003  RH  079%=      5-min Rain = 0
KJTS 110320Z 16007KT 04/00 A303 RMK A01 T00400003  RH  078%=      5-min Rain = 0
KJTS 110325Z 16007KT 04/00 A303 RMK A01 T00410003  RH  077%=      5-min Rain = 0
KJTS 110330Z 16007KT 04/00 A303 RMK A01 T00420002  RH  076%=      5-min Rain = 0
KJTS 110335Z 16007KT 04/00 A303 RMK A01 T00420002  RH  076%=      5-min Rain = 0
KJTS 110340Z 16007KT 04/00 A303 RMK A01 T00430002  RH  075%=      5-min Rain = 0
KJTS 110345Z 16007KT 04/00 A303 RMK A01 T00440001  RH  074%=      5-min Rain = 0
KJTS 110350Z 16007KT 04/00 A303 RMK A01 T00440000  RH  074%=      5-min Rain = 0
KJTS 110355Z 16007KT 04/00 A303 RMK A01 T004300-0  RH  075%=      5-min Rain = 0
KJTS 110400Z 16007KT 04/M00 A303 RMK A01 T00431001  RH  074%=      5-min Rain = 0
KJTS 110405Z 16007KT 04/M00 A303 RMK A01 T00421002  RH  074%=      5-min Rain = 0
KJTS 110410Z 16007KT 04/M00 A303 RMK A01 T00421003  RH  074%=      5-min Rain = 0
KJTS 110415Z 17007KT 04/M00 A303 RMK A01 T00411003  RH  073%=      5-min Rain = 0
KJTS 110420Z 16006KT 04/M00 A303 RMK A01 T00401004  RH  074%=      5-min Rain = 0
KJTS 110425Z 16006KT 04/M00 A303 RMK A01 T00401004  RH  074%=      5-min Rain = 0
KJTS 110430Z 16006KT 04/M00 A303 RMK A01 T00381004  RH  074%=      5-min Rain = 0
KJTS 110435Z 17006KT 04/M01 A303 RMK A01 T00361005  RH  075%=      5-min Rain = 0
KJTS 110440Z 18007KT 04/M01 A303 RMK A01 T00361005  RH  076%=      5-min Rain = 0
KJTS 110445Z 19006KT 03/M01 A303 RMK A01 T00341006  RH  076%=      5-min Rain = 0
KJTS 110450Z 19005KT 03/M01 A303 RMK A01 T00331006  RH  076%=      5-min Rain = 0
KJTS 110455Z 20005KT 03/M01 A303 RMK A01 T00301007  RH  078%=      5-min Rain = 0
KJTS 110500Z 19005KT 03/M01 A303 RMK A01 T00281007  RH  078%=      5-min Rain = 0
KJTS 110505Z 19006KT 03/M01 A303 RMK A01 T00281007  RH  079%=      5-min Rain = 0
KJTS 110510Z 20006KT 03/M01 A303 RMK A01 T00311005  RH  078%=      5-min Rain = 0
KJTS 110515Z 20006KT 03/M01 A303 RMK A01 T00321006  RH  077%=      5-min Rain = 0
KJTS 110520Z 20005KT 03/M01 A303 RMK A01 T00321005  RH  077%=      5-min Rain = 0
KJTS 110525Z 20005KT 03/M01 A303 RMK A01 T00321006  RH  077%=      5-min Rain = 0
KJTS 110530Z 20005KT 03/M01 A303 RMK A01 T00301006  RH  078%=      5-min Rain = 0
KJTS 110535Z 20005KT 03/M01 A303 RMK A01 T00311005  RH  078%=      5-min Rain = 0
KJTS 110540Z 21005KT 03/M01 A303 RMK A01 T00291006  RH  078%=      5-min Rain = 0
KJTS 110545Z 22004KT 03/M01 A303 RMK A01 T00271007  RH  079%=      5-min Rain = 0
KJTS 110550Z 23004KT 03/M01 A303 RMK A01 T00271005  RH  081%=      5-min Rain = 0
KJTS 110555Z 23004KT 03/M00 A303 RMK A01 T00281004  RH  080%=      5-min Rain = 0

Page generated in 0.0323 seconds.